Time;durP1;ratioP1;P1;durP2;ratioP2;P2;SDS_P1;SDS_P2;PMS_P1;PMS_P2;Temp;Humidity;BMP_temperature;BMP_pressure;BME280_temperature;BME280_humidity;BME280_pressure;Samples;Min_cycle;Max_cycle;Signal;HPM_P1;HPM_P2
2022/11/27 00:01:11;;;;;;;10.80;9.80;;;;;;;2.10;100.00;101548.56;4981122;28;20255;-71
2022/11/27 00:03:37;;;;;;;10.57;9.67;;;;;;;2.11;100.00;101540.97;4979257;28;20371;-71
2022/11/27 00:06:03;;;;;;;11.33;10.33;;;;;;;2.12;100.00;101534.16;4991269;28;20271;-71
2022/11/27 00:08:28;;;;;;;12.53;10.17;;;;;;;2.15;100.00;101534.31;4983545;28;20192;-72
2022/11/27 00:10:53;;;;;;;10.90;9.87;;;;;;;2.17;100.00;101525.03;4986213;28;20181;-74
2022/11/27 00:13:19;;;;;;;10.90;9.90;;;;;;;2.20;100.00;101514.97;4980118;28;20344;-72
2022/11/27 00:15:44;;;;;;;9.93;9.03;;;;;;;2.25;100.00;101512.63;4981049;28;20268;-71
2022/11/27 00:18:10;;;;;;;10.83;9.40;;;;;;;2.30;100.00;101508.59;4985816;28;20204;-71
2022/11/27 00:20:35;;;;;;;11.27;8.73;;;;;;;2.33;100.00;101505.28;4988438;28;20622;-72
2022/11/27 00:23:01;;;;;;;11.03;9.77;;;;;;;2.36;100.00;101500.31;4981864;28;20293;-71
2022/11/27 00:25:26;;;;;;;10.73;8.77;;;;;;;2.37;100.00;101507.19;4982972;28;20257;-72
2022/11/27 00:27:51;;;;;;;9.27;8.47;;;;;;;2.40;100.00;101508.19;4983062;28;20189;-71
2022/11/27 00:30:17;;;;;;;10.13;9.30;;;;;;;2.42;100.00;101498.06;4983096;28;20229;-71
2022/11/27 00:32:42;;;;;;;12.10;9.90;;;;;;;2.42;100.00;101498.91;4983655;28;20285;-73
2022/11/27 00:35:08;;;;;;;10.40;9.40;;;;;;;2.42;100.00;101496.38;4987630;28;20276;-72
2022/11/27 00:37:33;;;;;;;10.43;9.33;;;;;;;2.44;100.00;101488.75;4988287;28;20189;-71
2022/11/27 00:39:59;;;;;;;10.13;8.50;;;;;;;2.49;100.00;101496.66;4987020;28;20205;-71
2022/11/27 00:42:24;;;;;;;9.47;8.43;;;;;;;2.53;100.00;101491.72;4989569;28;20209;-72
2022/11/27 00:44:49;;;;;;;9.77;8.47;;;;;;;2.56;100.00;101493.53;4987572;28;20185;-73
2022/11/27 00:47:15;;;;;;;9.90;8.73;;;;;;;2.59;100.00;101489.41;4987311;28;20184;-72
2022/11/27 00:49:40;;;;;;;10.83;8.70;;;;;;;2.64;100.00;101487.09;4990436;28;20270;-71
2022/11/27 00:52:05;;;;;;;9.53;8.50;;;;;;;2.67;100.00;101489.75;4987630;28;20192;-72
2022/11/27 00:54:31;;;;;;;10.00;8.23;;;;;;;2.70;100.00;101487.31;4987989;28;20181;-71
2022/11/27 00:56:56;;;;;;;9.03;8.23;;;;;;;2.74;100.00;101484.09;4993933;28;20624;-71
2022/11/27 00:59:21;;;;;;;8.63;7.73;;;;;;;2.77;100.00;101479.94;4985312;28;20292;-71
2022/11/27 01:01:47;;;;;;;9.00;8.10;;;;;;;2.79;100.00;101471.50;4983708;28;20213;-71
2022/11/27 01:04:14;;;;;;;9.03;8.13;;;;;;;2.81;100.00;101469.00;4994484;28;20210;-72
2022/11/27 01:06:41;;;;;;;9.83;8.73;;;;;;;2.84;100.00;101469.13;4985571;28;20645;-71
2022/11/27 01:09:07;;;;;;;9.17;8.33;;;;;;;2.85;100.00;101469.22;4987488;28;20209;-72
2022/11/27 01:11:34;;;;;;;11.47;9.17;;;;;;;2.87;100.00;101470.13;4986362;28;21001;-72
2022/11/27 01:14:03;;;;;;;8.43;7.63;;;;;;;2.83;100.00;101463.16;4983431;28;20250;-70
2022/11/27 01:16:30;;;;;;;9.63;8.73;;;;;;;2.80;100.00;101459.63;4984322;28;20244;-71
2022/11/27 01:18:57;;;;;;;10.23;8.77;;;;;;;2.73;100.00;101464.47;4980141;28;20223;-72
2022/11/27 01:21:25;;;;;;;10.63;9.73;;;;;;;2.65;100.00;101463.25;4981058;28;20220;-71
2022/11/27 01:23:50;;;;;;;10.37;9.33;;;;;;;2.57;100.00;101454.38;4986956;28;20192;-72
2022/11/27 01:26:17;;;;;;;10.27;9.27;;;;;;;2.50;100.00;101458.38;4984015;28;20181;-72
2022/11/27 01:28:43;;;;;;;9.00;8.30;;;;;;;2.51;100.00;101457.56;4980786;28;20831;-72
2022/11/27 01:31:15;;;;;;;10.40;9.50;;;;;;;2.52;100.00;101459.31;4982983;28;20200;-71
2022/11/27 01:33:41;;;;;;;10.00;9.20;;;;;;;2.51;100.00;101455.00;4982443;28;20181;-71
2022/11/27 01:36:07;;;;;;;10.70;9.60;;;;;;;2.52;100.00;101441.41;4984182;28;20235;-71
2022/11/27 01:38:33;;;;;;;10.73;9.77;;;;;;;2.57;100.00;101450.13;4983921;28;20192;-71
2022/11/27 01:41:11;;;;;;;10.03;9.10;;;;;;;2.62;100.00;101450.34;4982165;28;20188;-72
2022/11/27 01:43:49;;;;;;;10.13;9.20;;;;;;;2.62;100.00;101454.56;4980675;28;20279;-71
2022/11/27 01:46:38;;;;;;;10.20;9.03;;;;;;;2.59;100.00;101456.19;4982681;28;20189;-71
2022/11/27 01:49:09;;;;;;;10.03;9.10;;;;;;;2.58;100.00;101453.59;4984262;28;20248;-72
2022/11/27 01:51:50;;;;;;;9.47;8.57;;;;;;;2.62;100.00;101462.25;4987148;28;20264;-71
2022/11/27 01:54:17;;;;;;;11.43;9.63;;;;;;;2.63;100.00;101466.56;4984156;28;20828;-71
2022/11/27 01:56:47;;;;;;;11.70;10.23;;;;;;;2.63;100.00;101453.78;4986219;28;20340;-72
2022/11/27 01:59:14;;;;;;;11.80;10.70;;;;;;;2.59;100.00;101458.75;4985375;28;20197;-71
2022/11/27 02:01:40;;;;;;;12.50;10.00;;;;;;;2.58;100.00;101449.34;4990332;28;20280;-71
2022/11/27 02:04:05;;;;;;;12.07;10.87;;;;;;;2.59;100.00;101452.78;4988118;28;20304;-71
2022/11/27 02:06:30;;;;;;;13.97;10.40;;;;;;;2.61;100.00;101453.72;4988320;28;20275;-71
2022/11/27 02:08:56;;;;;;;13.27;9.90;;;;;;;2.61;100.00;101456.28;4985749;28;20945;-72
2022/11/27 02:11:30;;;;;;;10.93;9.97;;;;;;;2.63;100.00;101448.66;4987667;28;20177;-72
2022/11/27 02:14:24;;;;;;;11.47;10.30;;;;;;;2.68;100.00;101447.19;4986032;28;20192;-72
2022/11/27 02:17:04;;;;;;;11.13;10.03;;;;;;;2.71;100.00;101447.31;4980601;28;20221;-71
2022/11/27 02:20:11;;;;;;;11.00;9.90;;;;;;;2.71;100.00;101457.53;4990654;28;20201;-72
2022/11/27 02:22:48;;;;;;;9.87;8.87;;;;;;;2.71;100.00;101453.28;4969843;28;20271;-71
2022/11/27 02:25:32;;;;;;;10.10;9.10;;;;;;;2.72;100.00;101459.28;4986283;28;20192;-72
2022/11/27 02:28:15;;;;;;;10.10;9.20;;;;;;;2.72;100.00;101465.25;4988802;28;20560;-72
2022/11/27 02:30:59;;;;;;;9.80;8.90;;;;;;;2.76;100.00;101462.84;4982117;28;20621;-71
2022/11/27 02:33:28;;;;;;;9.67;8.70;;;;;;;2.72;100.00;101459.28;4985122;28;20189;-72
2022/11/27 02:36:05;;;;;;;8.97;8.07;;;;;;;2.70;100.00;101463.47;4987358;28;20404;-72
2022/11/27 02:38:40;;;;;;;8.93;8.03;;;;;;;2.72;100.00;101467.81;4986220;28;20190;-72
2022/11/27 02:41:11;;;;;;;9.17;8.33;;;;;;;2.77;100.00;101462.03;4985713;28;20181;-70
2022/11/27 02:43:41;;;;;;;8.57;7.80;;;;;;;2.81;100.00;101466.44;4989891;28;20214;-72
2022/11/27 02:46:09;;;;;;;9.30;8.40;;;;;;;2.82;100.00;101450.28;4986457;28;20201;-72
2022/11/27 02:48:40;;;;;;;9.73;8.30;;;;;;;2.81;100.00;101446.88;4993514;28;20196;-73
2022/11/27 02:51:06;;;;;;;8.00;7.30;;;;;;;2.82;100.00;101445.19;4985824;28;20189;-71
2022/11/27 02:53:43;;;;;;;9.67;8.67;;;;;;;2.86;100.00;101437.72;4993254;28;20180;-72
2022/11/27 02:56:13;;;;;;;8.67;7.77;;;;;;;2.87;100.00;101433.47;4987324;28;20185;-72
2022/11/27 02:58:40;;;;;;;9.27;8.37;;;;;;;2.90;100.00;101431.06;4984754;28;20180;-73
2022/11/27 03:01:08;;;;;;;8.80;7.90;;;;;;;2.93;100.00;101430.28;4988374;28;20189;-72
2022/11/27 03:03:39;;;;;;;8.30;7.40;;;;;;;2.94;100.00;101412.47;4988214;28;20212;-72
2022/11/27 03:06:10;;;;;;;8.63;7.73;;;;;;;2.98;100.00;101414.31;4989182;28;20189;-71
2022/11/27 03:08:59;;;;;;;9.63;8.00;;;;;;;3.02;100.00;101411.09;4982853;28;20296;-70
2022/11/27 03:11:29;;;;;;;10.30;8.57;;;;;;;3.03;100.00;101400.03;4986997;28;20200;-72
2022/11/27 03:14:00;;;;;;;9.33;8.10;;;;;;;3.08;100.00;101397.66;4989188;28;20191;-73
2022/11/27 03:17:04;;;;;;;8.50;7.60;;;;;;;3.10;100.00;101388.38;4984420;28;20818;-72
2022/11/27 03:19:35;;;;;;;9.30;7.90;;;;;;;3.12;100.00;101393.53;4971877;28;20721;-72
2022/11/27 03:22:03;;;;;;;8.83;7.93;;;;;;;3.11;100.00;101389.22;4989962;28;20685;-72
2022/11/27 03:24:30;;;;;;;9.10;8.10;;;;;;;3.11;100.00;101392.66;4984523;28;20197;-74
2022/11/27 03:26:57;;;;;;;9.03;7.70;;;;;;;3.13;100.00;101388.50;4993542;28;20304;-72
2022/11/27 03:29:28;;;;;;;9.30;8.03;;;;;;;3.19;100.00;101382.75;4988845;28;20208;-72
2022/11/27 03:31:55;;;;;;;11.60;9.17;;;;;;;3.21;100.00;101388.78;4993271;28;20217;-73
2022/11/27 03:34:20;;;;;;;10.00;8.37;;;;;;;3.23;100.00;101386.28;4985745;28;20190;-72
2022/11/27 03:36:45;;;;;;;13.27;9.23;;;;;;;3.22;100.00;101382.88;4988213;28;20193;-72
2022/11/27 03:39:11;;;;;;;10.30;9.20;;;;;;;3.21;100.00;101376.00;4987536;28;20208;-72
2022/11/27 03:41:42;;;;;;;13.27;9.73;;;;;;;3.21;100.00;101370.88;4983882;28;20185;-72
2022/11/27 03:44:31;;;;;;;11.47;9.50;;;;;;;3.20;100.00;101369.13;4987003;28;20205;-71
2022/11/27 03:47:08;;;;;;;12.40;9.37;;;;;;;3.22;100.00;101371.75;4985895;28;20638;-72
2022/11/27 03:50:03;;;;;;;14.97;10.63;;;;;;;3.22;100.00;101370.06;4983481;28;21098;-70
2022/11/27 03:52:35;;;;;;;11.63;9.97;;;;;;;3.21;100.00;101365.78;4983552;28;20247;-72
2022/11/27 03:55:11;;;;;;;12.63;10.07;;;;;;;3.24;100.00;101360.78;4984871;28;20959;-72
2022/11/27 03:57:58;;;;;;;13.27;10.00;;;;;;;3.30;100.00;101366.13;4987332;28;20200;-72
2022/11/27 04:00:24;;;;;;;12.67;9.47;;;;;;;3.32;100.00;101363.63;4985838;28;20292;-73
2022/11/27 04:02:51;;;;;;;11.43;9.53;;;;;;;3.34;100.00;101361.97;4986382;28;20216;-72
2022/11/27 04:05:17;;;;;;;12.33;9.97;;;;;;;3.35;100.00;101366.28;4986202;28;20186;-73
2022/11/27 04:07:42;;;;;;;12.00;9.73;;;;;;;3.39;100.00;101365.59;4979958;28;20662;-71
2022/11/27 04:10:09;;;;;;;12.90;9.50;;;;;;;3.42;100.00;101362.25;4977887;28;20351;-72
2022/11/27 04:12:35;;;;;;;12.10;9.47;;;;;;;3.48;100.00;101367.63;4980765;28;20191;-72
2022/11/27 04:15:00;;;;;;;12.63;9.37;;;;;;;3.53;100.00;101371.25;4987501;28;20653;-72
2022/11/27 04:17:26;;;;;;;12.17;9.37;;;;;;;3.57;100.00;101367.97;4984437;28;20553;-71
2022/11/27 04:19:51;;;;;;;13.63;10.20;;;;;;;3.59;100.00;101370.59;4984699;28;20220;-72
2022/11/27 04:22:17;;;;;;;14.77;10.93;;;;;;;3.60;100.00;101365.53;4982766;28;20230;-72
2022/11/27 04:24:42;;;;;;;14.03;10.13;;;;;;;3.61;100.00;101363.84;4984764;28;21197;-72
2022/11/27 04:27:07;;;;;;;16.27;11.53;;;;;;;3.59;100.00;101368.88;4985534;28;20202;-72
2022/11/27 04:29:33;;;;;;;14.30;11.60;;;;;;;3.58;100.00;101356.06;4982222;28;20212;-71
2022/11/27 04:31:58;;;;;;;14.13;10.97;;;;;;;3.57;100.00;101361.97;4985126;28;20665;-73
2022/11/27 04:34:23;;;;;;;11.83;10.27;;;;;;;3.59;100.00;101361.22;4990060;28;20285;-72
2022/11/27 04:36:48;;;;;;;14.17;11.40;;;;;;;3.61;100.00;101357.03;4983670;28;20284;-72
2022/11/27 04:39:14;;;;;;;13.07;10.60;;;;;;;3.66;100.00;101354.63;4986056;28;20220;-71
2022/11/27 04:41:39;;;;;;;11.27;10.03;;;;;;;3.69;100.00;101351.31;4986953;28;20256;-71
2022/11/27 04:44:05;;;;;;;12.70;11.30;;;;;;;3.71;100.00;101352.22;4986848;28;20568;-72
2022/11/27 04:46:30;;;;;;;12.73;10.53;;;;;;;3.71;100.00;101345.44;4982186;28;20276;-71
2022/11/27 04:48:56;;;;;;;14.63;10.90;;;;;;;3.66;100.00;101335.03;4986642;28;20216;-71
2022/11/27 04:51:21;;;;;;;14.43;10.20;;;;;;;3.64;100.00;101336.66;4986545;28;20228;-71
2022/11/27 04:53:47;;;;;;;11.47;9.87;;;;;;;3.62;100.00;101348.53;4983413;28;20182;-71
2022/11/27 04:56:12;;;;;;;12.40;10.53;;;;;;;3.61;100.00;101351.91;4984666;28;20192;-71
2022/11/27 04:58:37;;;;;;;10.73;9.63;;;;;;;3.62;100.00;101345.13;4981184;28;20654;-73
2022/11/27 05:01:03;;;;;;;12.70;9.47;;;;;;;3.64;100.00;101338.34;4983059;28;20202;-72
2022/11/27 05:03:28;;;;;;;12.23;9.63;;;;;;;3.66;100.00;101331.59;4985744;28;20206;-73
2022/11/27 05:05:56;;;;;;;9.93;8.93;;;;;;;3.69;100.00;101336.81;4986254;28;20266;-71
2022/11/27 05:08:23;;;;;;;11.53;9.93;;;;;;;3.73;100.00;101335.25;4999932;28;20275;-71
2022/11/27 05:11:06;;;;;;;12.27;9.67;;;;;;;3.77;100.00;101340.56;4983143;28;20201;-74
2022/11/27 05:13:32;;;;;;;14.00;10.37;;;;;;;3.78;100.00;101337.16;4980842;28;20196;-71
2022/11/27 05:15:57;;;;;;;12.67;10.73;;;;;;;3.78;100.00;101331.16;4980019;28;20189;-71
2022/11/27 05:18:23;;;;;;;12.53;10.33;;;;;;;3.75;100.00;101331.94;4985516;28;20701;-70
2022/11/27 05:21:07;;;;;;;13.70;11.50;;;;;;;3.72;100.00;101326.69;4986240;28;20252;-72
2022/11/27 05:23:33;;;;;;;13.73;11.43;;;;;;;3.70;100.00;101327.47;4982545;28;20724;-73
2022/11/27 05:25:58;;;;;;;14.40;11.77;;;;;;;3.66;100.00;101336.72;4981522;28;20189;-70
2022/11/27 05:28:24;;;;;;;14.63;12.23;;;;;;;3.63;100.00;101327.25;4983203;28;20194;-75
2022/11/27 05:30:49;;;;;;;15.20;12.47;;;;;;;3.64;100.00;101323.88;4984047;28;20217;-70
2022/11/27 05:33:16;;;;;;;14.03;11.33;;;;;;;3.64;100.00;101328.09;4986871;28;20181;-72
2022/11/27 05:35:42;;;;;;;13.93;11.53;;;;;;;3.65;100.00;101330.72;4983022;28;20203;-71
2022/11/27 05:38:08;;;;;;;14.30;12.00;;;;;;;3.68;100.00;101329.97;4982455;28;20194;-71
2022/11/27 05:40:34;;;;;;;17.87;13.87;;;;;;;3.68;100.00;101335.09;4984374;28;20685;-71
2022/11/27 05:42:59;;;;;;;16.40;13.27;;;;;;;3.66;100.00;101332.47;4978442;28;20213;-72
2022/11/27 05:45:25;;;;;;;19.07;14.00;;;;;;;3.64;100.00;101328.97;4983566;28;20192;-71
2022/11/27 05:47:50;;;;;;;17.53;13.30;;;;;;;3.63;100.00;101329.81;4984968;28;20197;-71
2022/11/27 05:50:15;;;;;;;14.60;12.00;;;;;;;3.62;100.00;101335.72;4986394;28;20852;-71
2022/11/27 05:52:41;;;;;;;16.40;12.73;;;;;;;3.63;100.00;101336.63;4984264;28;20185;-71
2022/11/27 05:55:06;;;;;;;18.23;12.97;;;;;;;3.61;100.00;101336.53;4981378;28;20251;-71
2022/11/27 05:57:32;;;;;;;15.00;11.87;;;;;;;3.60;100.00;101339.06;4980609;28;20697;-70
2022/11/27 05:59:57;;;;;;;15.70;12.43;;;;;;;3.58;100.00;101333.88;4982628;28;20219;-72
2022/11/27 06:02:24;;;;;;;16.90;12.57;;;;;;;3.59;100.00;101330.50;4982719;28;20247;-73
2022/11/27 06:04:49;;;;;;;15.23;11.90;;;;;;;3.61;100.00;101323.75;4984962;28;20189;-72
2022/11/27 06:07:14;;;;;;;16.50;11.83;;;;;;;3.59;100.00;101325.38;4983396;28;20220;-71
2022/11/27 06:09:40;;;;;;;14.97;12.13;;;;;;;3.57;100.00;101321.88;4985042;28;20359;-72
2022/11/27 06:12:05;;;;;;;19.20;13.07;;;;;;;3.56;100.00;101306.47;4978065;28;20186;-71
2022/11/27 06:14:33;;;;;;;17.60;12.50;;;;;;;3.55;100.00;101295.38;4979915;28;20198;-71
2022/11/27 06:16:59;;;;;;;16.17;12.40;;;;;;;3.57;100.00;101288.59;4981816;28;20714;-71
2022/11/27 06:19:25;;;;;;;14.63;11.20;;;;;;;3.55;100.00;101281.69;4976266;28;20219;-71
2022/11/27 06:21:50;;;;;;;14.57;11.70;;;;;;;3.53;100.00;101276.53;4977312;28;20200;-71
2022/11/27 06:24:15;;;;;;;15.53;12.37;;;;;;;3.55;100.00;101261.22;4979140;28;20206;-72
2022/11/27 06:26:41;;;;;;;15.10;11.03;;;;;;;3.55;100.00;101251.00;4989237;28;20232;-70
2022/11/27 06:29:06;;;;;;;15.93;11.87;;;;;;;3.54;100.00;101256.91;4986382;28;20244;-71
2022/11/27 06:31:32;;;;;;;15.60;12.10;;;;;;;3.48;100.00;101248.19;4984898;28;20232;-71
2022/11/27 06:33:58;;;;;;;13.83;11.20;;;;;;;3.42;100.00;101255.69;4980890;28;20973;-71
2022/11/27 06:36:28;;;;;;;13.97;11.47;;;;;;;3.39;100.00;101254.69;4983278;28;20613;-69
2022/11/27 06:38:53;;;;;;;17.47;12.00;;;;;;;3.34;100.00;101257.97;4984622;28;20220;-71
2022/11/27 06:41:21;;;;;;;14.87;10.80;;;;;;;3.27;100.00;101253.41;4982196;28;20192;-72
2022/11/27 06:43:46;;;;;;;14.40;10.50;;;;;;;3.22;100.00;101262.63;4991019;28;20331;-72
2022/11/27 06:46:15;;;;;;;13.77;11.00;;;;;;;3.18;100.00;101265.88;4982989;28;20243;-70
2022/11/27 06:48:47;;;;;;;11.93;9.83;;;;;;;3.16;100.00;101272.63;4988138;28;20201;-70
2022/11/27 06:51:15;;;;;;;14.50;11.20;;;;;;;3.17;100.00;101271.81;4988055;28;20185;-71
2022/11/27 06:53:40;;;;;;;14.23;10.80;;;;;;;3.16;100.00;101281.19;4986259;28;20184;-74
2022/11/27 06:56:11;;;;;;;12.50;10.03;;;;;;;3.20;100.00;101277.03;4989263;28;20197;-71
2022/11/27 06:58:37;;;;;;;14.17;10.53;;;;;;;3.16;100.00;101278.63;4982599;28;20201;-70
2022/11/27 07:01:06;;;;;;;11.03;9.53;;;;;;;3.13;100.00;101290.41;4989748;28;20201;-72
2022/11/27 07:03:32;;;;;;;13.07;9.70;;;;;;;3.08;100.00;101284.28;4990453;28;20242;-72
2022/11/27 07:06:05;;;;;;;11.80;9.47;;;;;;;3.07;100.00;101270.59;4987578;28;20220;-71
2022/11/27 07:08:31;;;;;;;11.57;9.13;;;;;;;3.04;100.00;101253.47;4979715;28;20717;-73
2022/11/27 07:11:03;;;;;;;13.00;9.70;;;;;;;3.03;100.00;101236.38;4988419;28;20276;-74
2022/11/27 07:13:29;;;;;;;10.90;9.00;;;;;;;3.02;100.00;101241.44;4983618;28;20693;-72
2022/11/27 07:15:58;;;;;;;12.27;9.80;;;;;;;3.02;100.00;101232.06;4980397;28;20185;-72
2022/11/27 07:18:23;;;;;;;11.37;9.93;;;;;;;3.04;100.00;101224.44;4983809;28;20276;-72
2022/11/27 07:20:52;;;;;;;12.77;9.50;;;;;;;3.06;100.00;101225.38;4976990;28;21005;-72
2022/11/27 07:23:18;;;;;;;12.23;9.33;;;;;;;3.08;100.00;101231.41;4977871;28;20567;-74
2022/11/27 07:25:43;;;;;;;12.90;8.93;;;;;;;3.07;100.00;101237.34;4983583;28;20189;-73
2022/11/27 07:28:08;;;;;;;11.50;9.27;;;;;;;3.06;100.00;101235.59;4983881;28;20196;-73
2022/11/27 07:30:34;;;;;;;10.27;8.37;;;;;;;3.04;100.00;101229.53;4986020;28;20220;-72
2022/11/27 07:32:59;;;;;;;9.40;8.37;;;;;;;3.08;100.00;101216.06;4982485;28;20208;-74
2022/11/27 07:35:24;;;;;;;10.07;8.07;;;;;;;3.13;100.00;101209.44;4982722;28;20587;-71
2022/11/27 07:37:50;;;;;;;8.77;7.70;;;;;;;3.18;100.00;101233.47;4982038;28;20196;-72
2022/11/27 07:40:17;;;;;;;11.47;8.17;;;;;;;3.23;100.00;101259.25;4982144;28;20220;-73
2022/11/27 07:42:42;;;;;;;8.50;7.60;;;;;;;3.23;100.00;101263.50;4986662;28;20228;-73
2022/11/27 07:45:08;;;;;;;8.70;7.37;;;;;;;3.25;100.00;101270.44;4985572;28;20654;-72
2022/11/27 07:47:33;;;;;;;9.60;8.60;;;;;;;3.28;100.00;101267.09;4979381;28;20200;-74
2022/11/27 07:49:59;;;;;;;8.37;7.53;;;;;;;3.29;100.00;101263.72;4980014;28;20240;-71
2022/11/27 07:52:25;;;;;;;9.53;8.23;;;;;;;3.35;100.00;101269.06;4982769;28;20233;-72
2022/11/27 07:54:50;;;;;;;10.03;8.50;;;;;;;3.43;100.00;101266.75;4982403;28;20196;-72
2022/11/27 07:57:15;;;;;;;9.53;8.53;;;;;;;3.45;100.00;101273.72;4981478;28;20185;-71
2022/11/27 07:59:40;;;;;;;10.10;9.10;;;;;;;3.44;100.00;101269.41;4980865;28;20206;-72
2022/11/27 08:02:08;;;;;;;9.17;7.90;;;;;;;3.47;100.00;101268.63;4981180;28;20560;-71
2022/11/27 08:04:33;;;;;;;8.47;7.67;;;;;;;3.54;100.00;101250.13;4980913;28;20270;-73
2022/11/27 08:06:59;;;;;;;9.40;8.50;;;;;;;3.61;100.00;101239.28;4985301;28;20271;-71
2022/11/27 08:09:24;;;;;;;8.80;8.00;;;;;;;3.70;100.00;101214.81;4979926;28;20292;-71
2022/11/27 08:11:49;;;;;;;9.27;7.80;;;;;;;3.77;100.00;101215.09;4979618;28;20225;-70
2022/11/27 08:14:15;;;;;;;9.43;8.07;;;;;;;3.85;100.00;101209.34;4981498;28;20215;-71
2022/11/27 08:16:40;;;;;;;9.03;7.77;;;;;;;3.93;100.00;101197.69;4981471;28;20197;-72
2022/11/27 08:19:06;;;;;;;9.20;7.83;;;;;;;3.96;100.00;101187.50;4980435;28;20236;-70
2022/11/27 08:21:31;;;;;;;8.70;7.80;;;;;;;4.05;100.00;101184.38;4980124;28;20193;-72
2022/11/27 08:23:57;;;;;;;8.73;7.83;;;;;;;4.14;100.00;101187.25;4982667;28;20669;-70
2022/11/27 08:26:22;;;;;;;8.43;7.43;;;;;;;4.26;100.00;101182.50;4982694;28;20188;-70
2022/11/27 08:28:50;;;;;;;8.93;7.57;;;;;;;4.36;100.00;101190.47;4984443;28;20220;-71
2022/11/27 08:31:16;;;;;;;7.43;6.73;;;;;;;4.41;100.00;101181.25;4979536;28;20201;-70
2022/11/27 08:33:42;;;;;;;7.17;6.43;;;;;;;4.45;100.00;101189.88;4985440;28;20200;-72
2022/11/27 08:36:08;;;;;;;7.90;7.10;;;;;;;4.47;100.00;101188.25;4982785;28;20197;-72
2022/11/27 08:38:33;;;;;;;7.67;6.90;;;;;;;4.51;100.00;101179.84;4985701;28;20197;-72
2022/11/27 08:41:01;;;;;;;7.80;7.00;;;;;;;4.55;100.00;101172.28;4983571;28;20192;-72
2022/11/27 08:43:27;;;;;;;9.97;8.00;;;;;;;4.56;100.00;101168.00;4982163;28;20213;-72
2022/11/27 08:45:53;;;;;;;8.97;7.63;;;;;;;4.55;100.00;101173.94;4986725;28;20231;-71
2022/11/27 08:48:20;;;;;;;7.37;6.67;;;;;;;4.58;100.00;101174.94;4982291;28;20316;-71
2022/11/27 08:50:45;;;;;;;7.97;6.97;;;;;;;4.61;100.00;101189.53;4982301;28;20213;-72
2022/11/27 08:53:11;;;;;;;7.90;7.03;;;;;;;4.64;100.00;101210.16;4982954;28;20178;-72
2022/11/27 08:55:36;;;;;;;8.37;7.47;;;;;;;4.67;100.00;101197.41;4984359;28;20186;-72
2022/11/27 08:58:02;;;;;;;8.77;7.63;;;;;;;4.71;100.00;101196.66;4984655;28;20181;-72
2022/11/27 09:00:28;;;;;;;8.33;7.43;;;;;;;4.76;100.00;101201.97;4986612;28;20223;-75
2022/11/27 09:02:54;;;;;;;7.90;7.10;;;;;;;4.82;100.00;101199.56;4981342;28;20264;-73
2022/11/27 09:05:19;;;;;;;8.53;7.63;;;;;;;4.87;100.00;101200.56;4978994;28;20201;-72
2022/11/27 09:07:44;;;;;;;7.50;6.53;;;;;;;4.91;100.00;101198.94;4979136;28;20195;-71
2022/11/27 09:10:10;;;;;;;7.30;6.60;;;;;;;4.92;100.00;101203.25;4985013;28;20206;-72
2022/11/27 09:12:35;;;;;;;6.83;6.13;;;;;;;4.94;100.00;101200.72;4980495;28;20194;-72
2022/11/27 09:15:01;;;;;;;9.13;8.33;;;;;;;4.99;100.00;101201.75;4982955;28;21315;-75
2022/11/27 09:17:26;;;;;;;9.00;8.27;;;;;;;5.05;100.00;101196.81;4979140;28;20650;-72
2022/11/27 09:19:52;;;;;;;8.10;7.40;;;;;;;5.10;100.00;101199.50;4981630;28;20222;-74
2022/11/27 09:22:17;;;;;;;7.00;6.40;;;;;;;5.14;100.00;101180.78;4978661;28;20792;-72
2022/11/27 09:24:43;;;;;;;7.57;6.90;;;;;;;5.11;100.00;101181.56;4970915;28;20229;-74
2022/11/27 09:27:08;;;;;;;7.53;6.83;;;;;;;5.08;100.00;101185.75;4975444;28;20209;-73
2022/11/27 09:29:34;;;;;;;7.10;6.50;;;;;;;5.06;100.00;101183.16;4980154;28;20214;-72
2022/11/27 09:32:00;;;;;;;6.73;6.13;;;;;;;5.11;100.00;101173.84;4971436;28;20213;-71
2022/11/27 09:34:25;;;;;;;6.53;5.93;;;;;;;5.16;100.00;101172.31;4973765;28;20194;-71
2022/11/27 09:36:50;;;;;;;6.70;6.10;;;;;;;5.21;100.00;101169.00;4977287;28;20193;-73
2022/11/27 09:39:18;;;;;;;6.87;6.27;;;;;;;5.28;100.00;101174.34;4976566;28;20788;-71
2022/11/27 09:41:48;;;;;;;7.90;7.20;;;;;;;5.32;100.00;101175.28;4976033;28;20193;-71
2022/11/27 09:44:41;;;;;;;7.40;6.70;;;;;;;5.36;100.00;101168.53;4976365;28;20286;-73
2022/11/27 09:47:18;;;;;;;7.73;7.03;;;;;;;5.38;100.00;101162.59;4978901;28;20282;-73
2022/11/27 09:49:48;;;;;;;7.30;6.60;;;;;;;5.40;100.00;101173.78;4979915;28;20218;-72
2022/11/27 09:52:23;;;;;;;7.43;6.73;;;;;;;5.46;100.00;101173.06;4975370;28;20200;-72
2022/11/27 09:55:01;;;;;;;7.40;6.70;;;;;;;5.53;100.00;101168.97;4974840;28;20187;-72
2022/11/27 09:57:31;;;;;;;6.93;6.33;;;;;;;5.59;100.00;101170.03;4972170;28;20187;-72
2022/11/27 10:00:03;;;;;;;6.47;5.93;;;;;;;5.65;100.00;101169.31;4976699;28;20298;-73
2022/11/27 10:02:31;;;;;;;6.97;6.37;;;;;;;5.69;100.00;101162.53;4981424;28;20272;-71
2022/11/27 10:04:58;;;;;;;7.33;6.67;;;;;;;5.70;100.00;101167.69;4980269;28;20202;-71
2022/11/27 10:07:45;;;;;;;7.20;6.50;;;;;;;5.74;100.00;101161.81;4980378;28;20285;-73
2022/11/27 10:10:36;;;;;;;7.80;7.10;;;;;;;5.77;100.00;101161.00;4979463;28;20331;-70
2022/11/27 10:13:19;;;;;;;7.63;6.87;;;;;;;5.78;100.00;101148.22;4976008;28;20191;-72
2022/11/27 10:15:57;;;;;;;7.40;6.67;;;;;;;5.80;100.00;101146.56;4976755;28;20203;-72
2022/11/27 10:18:30;;;;;;;7.47;6.77;;;;;;;5.84;100.00;101141.47;4973201;28;20278;-72
2022/11/27 10:21:13;;;;;;;7.83;7.03;;;;;;;5.88;100.00;101144.19;4975806;28;20228;-73
2022/11/27 10:23:53;;;;;;;7.57;6.87;;;;;;;5.93;100.00;101139.16;4978880;28;20277;-72
2022/11/27 10:26:39;;;;;;;8.60;7.70;;;;;;;5.98;100.00;101139.25;4976617;28;20202;-74
2022/11/27 10:29:43;;;;;;;8.87;8.00;;;;;;;6.05;100.00;101131.75;4979312;28;20215;-73
2022/11/27 10:32:14;;;;;;;8.33;7.53;;;;;;;6.07;100.00;101131.78;4974876;28;20218;-73
2022/11/27 10:34:49;;;;;;;8.80;8.00;;;;;;;6.09;100.00;101114.69;4976108;28;20660;-73
2022/11/27 10:37:23;;;;;;;8.20;7.40;;;;;;;6.10;100.00;101116.44;4976305;28;20189;-72
2022/11/27 10:40:19;;;;;;;8.63;7.83;;;;;;;6.11;100.00;101100.19;4974840;28;20211;-73
2022/11/27 10:42:57;;;;;;;8.23;7.50;;;;;;;6.14;100.00;101084.84;4961962;28;22593;-72
2022/11/27 10:45:34;;;;;;;8.63;7.90;;;;;;;6.20;100.00;101066.97;4975431;28;20206;-72
2022/11/27 10:47:59;;;;;;;9.17;8.27;;;;;;;6.24;100.00;101050.78;4974717;28;20285;-73
2022/11/27 10:50:24;;;;;;;9.53;8.60;;;;;;;6.25;100.00;101051.66;4975924;28;20229;-73
2022/11/27 10:52:58;;;;;;;8.43;7.63;;;;;;;6.29;100.00;101045.72;4975639;28;20209;-71
2022/11/27 10:55:54;;;;;;;8.60;7.80;;;;;;;6.41;100.00;101047.69;4971423;28;20251;-72
2022/11/27 10:58:30;;;;;;;8.37;7.67;;;;;;;6.55;100.00;101042.84;4976653;28;20281;-72
2022/11/27 11:01:09;;;;;;;9.10;8.20;;;;;;;6.69;100.00;101033.69;4977881;28;20248;-74
2022/11/27 11:03:35;;;;;;;9.30;8.40;;;;;;;6.81;100.00;101021.88;4974534;28;20224;-72
2022/11/27 11:06:05;;;;;;;9.67;8.67;;;;;;;6.92;100.00;101017.78;4976389;28;20283;-73
2022/11/27 11:08:32;;;;;;;9.17;8.37;;;;;;;7.01;100.00;101012.84;4977268;28;20285;-73
2022/11/27 11:11:00;;;;;;;9.07;8.27;;;;;;;7.07;100.00;101022.34;4977864;28;20223;-73
2022/11/27 11:13:45;;;;;;;8.37;7.67;;;;;;;7.14;100.00;101019.03;4975009;28;20180;-70
2022/11/27 11:16:10;;;;;;;8.57;7.77;;;;;;;7.15;100.00;101018.19;4975109;28;20636;-72
2022/11/27 11:18:45;;;;;;;8.50;7.70;;;;;;;7.21;100.00;101008.84;4975399;28;20204;-72
2022/11/27 11:21:38;;;;;;;10.93;9.93;;;;;;;7.22;100.00;101018.31;4979053;28;20728;-71
2022/11/27 11:24:11;;;;;;;10.17;8.80;;;;;;;7.19;100.00;101021.69;4975805;28;20232;-72
2022/11/27 11:26:43;;;;;;;9.83;8.83;;;;;;;7.10;100.00;101017.28;4974795;28;20227;-72
2022/11/27 11:29:36;;;;;;;9.67;8.77;;;;;;;7.08;100.00;101030.94;4975948;28;20213;-73